sensor_id;sensor_type;location;lat;lon;timestamp;temperature;humidity
22738;DHT22;11536;50.860;4.286;2023-02-15T00:01:17;5.80;99.90
22738;DHT22;11536;50.860;4.286;2023-02-15T00:03:43;5.80;99.90
22738;DHT22;11536;50.860;4.286;2023-02-15T00:06:09;5.70;99.90
22738;DHT22;11536;50.860;4.286;2023-02-15T00:08:34;5.70;99.90
22738;DHT22;11536;50.860;4.286;2023-02-15T00:11:07;5.70;99.90
22738;DHT22;11536;50.860;4.286;2023-02-15T00:13:33;5.70;99.90
22738;DHT22;11536;50.860;4.286;2023-02-15T00:16:02;5.70;99.90
22738;DHT22;11536;50.860;4.286;2023-02-15T00:18:29;5.70;99.90
22738;DHT22;11536;50.860;4.286;2023-02-15T00:20:54;5.60;99.90
22738;DHT22;11536;50.860;4.286;2023-02-15T00:23:20;5.60;99.90
22738;DHT22;11536;50.860;4.286;2023-02-15T00:25:46;5.60;99.90
22738;DHT22;11536;50.860;4.286;2023-02-15T00:28:11;5.60;99.90
22738;DHT22;11536;50.860;4.286;2023-02-15T00:30:37;5.60;99.90
22738;DHT22;11536;50.860;4.286;2023-02-15T00:33:03;5.60;99.90
22738;DHT22;11536;50.860;4.286;2023-02-15T00:35:28;5.60;99.90
22738;DHT22;11536;50.860;4.286;2023-02-15T00:37:54;5.60;99.90
22738;DHT22;11536;50.860;4.286;2023-02-15T00:40:21;5.60;99.90
22738;DHT22;11536;50.860;4.286;2023-02-15T00:42:46;5.60;99.90
22738;DHT22;11536;50.860;4.286;2023-02-15T00:45:12;5.60;99.90
22738;DHT22;11536;50.860;4.286;2023-02-15T00:47:37;5.60;99.90
22738;DHT22;11536;50.860;4.286;2023-02-15T00:50:03;5.60;99.90
22738;DHT22;11536;50.860;4.286;2023-02-15T00:52:29;5.60;99.90
22738;DHT22;11536;50.860;4.286;2023-02-15T00:54:54;5.70;99.90
22738;DHT22;11536;50.860;4.286;2023-02-15T00:57:20;5.70;99.90
22738;DHT22;11536;50.860;4.286;2023-02-15T00:59:45;5.60;99.90
22738;DHT22;11536;50.860;4.286;2023-02-15T01:02:11;5.70;99.90
22738;DHT22;11536;50.860;4.286;2023-02-15T01:04:37;5.70;99.90
22738;DHT22;11536;50.860;4.286;2023-02-15T01:07:02;5.70;99.90
22738;DHT22;11536;50.860;4.286;2023-02-15T01:09:29;5.60;99.90
22738;DHT22;11536;50.860;4.286;2023-02-15T01:11:54;5.60;99.90
22738;DHT22;11536;50.860;4.286;2023-02-15T01:14:20;5.60;99.90
22738;DHT22;11536;50.860;4.286;2023-02-15T01:16:45;5.60;99.90
22738;DHT22;11536;50.860;4.286;2023-02-15T01:19:12;5.60;99.90
22738;DHT22;11536;50.860;4.286;2023-02-15T01:21:37;5.60;99.90
22738;DHT22;11536;50.860;4.286;2023-02-15T01:24:03;5.60;99.90
22738;DHT22;11536;50.860;4.286;2023-02-15T01:26:29;5.60;99.90
22738;DHT22;11536;50.860;4.286;2023-02-15T01:28:54;5.60;99.90
22738;DHT22;11536;50.860;4.286;2023-02-15T01:31:21;5.50;99.90
22738;DHT22;11536;50.860;4.286;2023-02-15T01:33:47;5.50;99.90
22738;DHT22;11536;50.860;4.286;2023-02-15T01:36:13;5.50;99.90
22738;DHT22;11536;50.860;4.286;2023-02-15T01:38:39;5.50;99.90
22738;DHT22;11536;50.860;4.286;2023-02-15T01:41:05;5.50;99.90
22738;DHT22;11536;50.860;4.286;2023-02-15T01:43:54;5.40;99.90
22738;DHT22;11536;50.860;4.286;2023-02-15T01:46:24;5.40;99.90
22738;DHT22;11536;50.860;4.286;2023-02-15T01:49:35;5.40;99.90
22738;DHT22;11536;50.860;4.286;2023-02-15T01:51:44;5.40;99.90
22738;DHT22;11536;50.860;4.286;2023-02-15T01:54:21;5.40;99.90
22738;DHT22;11536;50.860;4.286;2023-02-15T01:56:52;5.30;99.90
22738;DHT22;11536;50.860;4.286;2023-02-15T01:59:22;5.30;99.90
22738;DHT22;11536;50.860;4.286;2023-02-15T02:01:51;5.30;99.90
22738;DHT22;11536;50.860;4.286;2023-02-15T02:04:31;5.30;99.90
22738;DHT22;11536;50.860;4.286;2023-02-15T02:06:59;5.20;99.90
22738;DHT22;11536;50.860;4.286;2023-02-15T02:09:25;5.20;99.90
22738;DHT22;11536;50.860;4.286;2023-02-15T02:11:51;5.20;99.90
22738;DHT22;11536;50.860;4.286;2023-02-15T02:14:19;5.10;99.90
22738;DHT22;11536;50.860;4.286;2023-02-15T02:25:28;5.10;99.90
22738;DHT22;11536;50.860;4.286;2023-02-15T02:28:10;5.00;99.90
22738;DHT22;11536;50.860;4.286;2023-02-15T02:33:54;4.90;99.90
22738;DHT22;11536;50.860;4.286;2023-02-15T02:44:43;4.90;99.90
22738;DHT22;11536;50.860;4.286;2023-02-15T02:47:23;4.80;99.90
22738;DHT22;11536;50.860;4.286;2023-02-15T02:49:58;4.80;99.90
22738;DHT22;11536;50.860;4.286;2023-02-15T02:52:38;4.80;99.90
22738;DHT22;11536;50.860;4.286;2023-02-15T02:55:08;4.80;99.90
22738;DHT22;11536;50.860;4.286;2023-02-15T02:57:37;4.70;99.90
22738;DHT22;11536;50.860;4.286;2023-02-15T03:00:05;4.70;99.90
22738;DHT22;11536;50.860;4.286;2023-02-15T03:02:37;4.70;99.90
22738;DHT22;11536;50.860;4.286;2023-02-15T03:05:08;4.70;99.90
22738;DHT22;11536;50.860;4.286;2023-02-15T03:07:35;4.60;99.90
22738;DHT22;11536;50.860;4.286;2023-02-15T03:10:04;4.60;99.90
22738;DHT22;11536;50.860;4.286;2023-02-15T03:12:38;4.60;99.90
22738;DHT22;11536;50.860;4.286;2023-02-15T03:17:37;4.60;99.90
22738;DHT22;11536;50.860;4.286;2023-02-15T03:20:24;4.50;99.90
22738;DHT22;11536;50.860;4.286;2023-02-15T03:23:04;4.50;99.90
22738;DHT22;11536;50.860;4.286;2023-02-15T03:25:40;4.50;99.90
22738;DHT22;11536;50.860;4.286;2023-02-15T03:28:09;4.50;99.90
22738;DHT22;11536;50.860;4.286;2023-02-15T03:30:38;4.50;99.90
22738;DHT22;11536;50.860;4.286;2023-02-15T03:33:06;4.50;99.90
22738;DHT22;11536;50.860;4.286;2023-02-15T03:35:39;4.40;99.90
22738;DHT22;11536;50.860;4.286;2023-02-15T03:38:09;4.40;99.90
22738;DHT22;11536;50.860;4.286;2023-02-15T03:40:41;4.40;99.90
22738;DHT22;11536;50.860;4.286;2023-02-15T03:43:52;4.40;99.90
22738;DHT22;11536;50.860;4.286;2023-02-15T03:46:30;4.30;99.90
22738;DHT22;11536;50.860;4.286;2023-02-15T03:49:04;4.30;99.90
22738;DHT22;11536;50.860;4.286;2023-02-15T03:51:36;4.30;99.90
22738;DHT22;11536;50.860;4.286;2023-02-15T03:54:09;4.30;99.90
22738;DHT22;11536;50.860;4.286;2023-02-15T03:56:38;4.30;99.90
22738;DHT22;11536;50.860;4.286;2023-02-15T03:59:04;4.30;99.90
22738;DHT22;11536;50.860;4.286;2023-02-15T04:02:14;4.30;99.90
22738;DHT22;11536;50.860;4.286;2023-02-15T04:04:47;4.30;99.90
22738;DHT22;11536;50.860;4.286;2023-02-15T04:07:12;4.30;99.90
22738;DHT22;11536;50.860;4.286;2023-02-15T04:09:38;4.30;99.90
22738;DHT22;11536;50.860;4.286;2023-02-15T04:12:22;4.30;99.90
22738;DHT22;11536;50.860;4.286;2023-02-15T04:14:48;4.30;99.90
22738;DHT22;11536;50.860;4.286;2023-02-15T04:17:32;4.30;99.90
22738;DHT22;11536;50.860;4.286;2023-02-15T04:19:58;4.30;99.90
22738;DHT22;11536;50.860;4.286;2023-02-15T04:22:42;4.20;99.90
22738;DHT22;11536;50.860;4.286;2023-02-15T04:25:26;4.20;99.90
22738;DHT22;11536;50.860;4.286;2023-02-15T04:27:53;4.10;99.90
22738;DHT22;11536;50.860;4.286;2023-02-15T04:30:22;4.10;99.90
22738;DHT22;11536;50.860;4.286;2023-02-15T04:32:48;4.10;99.90
22738;DHT22;11536;50.860;4.286;2023-02-15T04:35:14;4.10;99.90
22738;DHT22;11536;50.860;4.286;2023-02-15T04:37:41;4.10;99.90
22738;DHT22;11536;50.860;4.286;2023-02-15T04:40:10;4.10;99.90
22738;DHT22;11536;50.860;4.286;2023-02-15T04:42:35;4.10;99.90
22738;DHT22;11536;50.860;4.286;2023-02-15T04:45:01;4.10;99.90
22738;DHT22;11536;50.860;4.286;2023-02-15T04:47:27;4.10;99.90
22738;DHT22;11536;50.860;4.286;2023-02-15T04:49:53;4.10;99.90
22738;DHT22;11536;50.860;4.286;2023-02-15T04:52:18;4.10;99.90
22738;DHT22;11536;50.860;4.286;2023-02-15T04:54:44;4.10;99.90
22738;DHT22;11536;50.860;4.286;2023-02-15T04:57:10;4.10;99.90
22738;DHT22;11536;50.860;4.286;2023-02-15T04:59:36;4.00;99.90
22738;DHT22;11536;50.860;4.286;2023-02-15T05:02:02;4.00;99.90
22738;DHT22;11536;50.860;4.286;2023-02-15T05:04:28;4.00;99.90
22738;DHT22;11536;50.860;4.286;2023-02-15T05:06:53;4.00;99.90
22738;DHT22;11536;50.860;4.286;2023-02-15T05:09:19;4.00;99.90
22738;DHT22;11536;50.860;4.286;2023-02-15T05:11:44;4.00;99.90
22738;DHT22;11536;50.860;4.286;2023-02-15T05:14:10;3.90;99.90
22738;DHT22;11536;50.860;4.286;2023-02-15T05:16:36;3.90;99.90
22738;DHT22;11536;50.860;4.286;2023-02-15T05:19:02;3.90;99.90
22738;DHT22;11536;50.860;4.286;2023-02-15T05:21:27;3.90;99.90
22738;DHT22;11536;50.860;4.286;2023-02-15T05:23:53;3.90;99.90
22738;DHT22;11536;50.860;4.286;2023-02-15T05:26:22;3.90;99.90
22738;DHT22;11536;50.860;4.286;2023-02-15T05:29:07;3.90;99.90
22738;DHT22;11536;50.860;4.286;2023-02-15T05:31:33;3.80;99.90
22738;DHT22;11536;50.860;4.286;2023-02-15T05:33:59;3.80;99.90
22738;DHT22;11536;50.860;4.286;2023-02-15T05:36:25;3.80;99.90
22738;DHT22;11536;50.860;4.286;2023-02-15T05:38:51;3.80;99.90
22738;DHT22;11536;50.860;4.286;2023-02-15T05:41:16;3.80;99.90
22738;DHT22;11536;50.860;4.286;2023-02-15T05:43:42;3.80;99.90
22738;DHT22;11536;50.860;4.286;2023-02-15T05:46:08;3.80;99.90
22738;DHT22;11536;50.860;4.286;2023-02-15T05:48:34;3.70;99.90
22738;DHT22;11536;50.860;4.286;2023-02-15T05:51:05;3.70;99.90
22738;DHT22;11536;50.860;4.286;2023-02-15T05:53:34;3.70;99.90
22738;DHT22;11536;50.860;4.286;2023-02-15T05:56:00;3.70;99.90
22738;DHT22;11536;50.860;4.286;2023-02-15T05:58:29;3.70;99.90
22738;DHT22;11536;50.860;4.286;2023-02-15T06:00:55;3.70;99.90
22738;DHT22;11536;50.860;4.286;2023-02-15T06:03:21;3.70;99.90
22738;DHT22;11536;50.860;4.286;2023-02-15T06:05:47;3.80;99.90
22738;DHT22;11536;50.860;4.286;2023-02-15T06:08:13;3.70;99.90
22738;DHT22;11536;50.860;4.286;2023-02-15T06:10:38;3.70;99.90
22738;DHT22;11536;50.860;4.286;2023-02-15T06:13:05;3.60;99.90
22738;DHT22;11536;50.860;4.286;2023-02-15T06:15:31;3.60;99.90
22738;DHT22;11536;50.860;4.286;2023-02-15T06:17:57;3.60;99.90
22738;DHT22;11536;50.860;4.286;2023-02-15T06:20:23;3.60;99.90
22738;DHT22;11536;50.860;4.286;2023-02-15T06:22:49;3.60;99.90
22738;DHT22;11536;50.860;4.286;2023-02-15T06:25:15;3.60;99.90
22738;DHT22;11536;50.860;4.286;2023-02-15T06:27:41;3.60;99.90
22738;DHT22;11536;50.860;4.286;2023-02-15T06:30:08;3.60;99.90
22738;DHT22;11536;50.860;4.286;2023-02-15T06:32:34;3.60;99.90
22738;DHT22;11536;50.860;4.286;2023-02-15T06:35:00;3.50;99.90
22738;DHT22;11536;50.860;4.286;2023-02-15T06:37:26;3.50;99.90
22738;DHT22;11536;50.860;4.286;2023-02-15T06:39:52;3.50;99.90
22738;DHT22;11536;50.860;4.286;2023-02-15T06:42:17;3.50;99.90
22738;DHT22;11536;50.860;4.286;2023-02-15T06:44:46;3.50;99.90
22738;DHT22;11536;50.860;4.286;2023-02-15T06:47:11;3.60;99.90
22738;DHT22;11536;50.860;4.286;2023-02-15T06:49:37;3.50;99.90
22738;DHT22;11536;50.860;4.286;2023-02-15T06:52:03;3.50;99.90
22738;DHT22;11536;50.860;4.286;2023-02-15T06:54:30;3.50;99.90
22738;DHT22;11536;50.860;4.286;2023-02-15T06:56:57;3.50;99.90
22738;DHT22;11536;50.860;4.286;2023-02-15T06:59:22;3.50;99.90
22738;DHT22;11536;50.860;4.286;2023-02-15T07:01:48;3.50;99.90
22738;DHT22;11536;50.860;4.286;2023-02-15T07:04:16;3.50;99.90
22738;DHT22;11536;50.860;4.286;2023-02-15T07:06:42;3.50;99.90
22738;DHT22;11536;50.860;4.286;2023-02-15T07:09:08;3.50;99.90
22738;DHT22;11536;50.860;4.286;2023-02-15T07:11:38;3.50;99.90
22738;DHT22;11536;50.860;4.286;2023-02-15T07:14:22;3.40;99.90
22738;DHT22;11536;50.860;4.286;2023-02-15T07:16:48;3.50;99.90
22738;DHT22;11536;50.860;4.286;2023-02-15T07:19:13;3.50;99.90
22738;DHT22;11536;50.860;4.286;2023-02-15T07:21:39;3.50;99.90
22738;DHT22;11536;50.860;4.286;2023-02-15T07:24:05;3.50;99.90
22738;DHT22;11536;50.860;4.286;2023-02-15T07:26:33;3.50;99.90
22738;DHT22;11536;50.860;4.286;2023-02-15T07:28:59;3.60;99.90
22738;DHT22;11536;50.860;4.286;2023-02-15T07:31:25;3.60;99.90
22738;DHT22;11536;50.860;4.286;2023-02-15T07:33:52;3.60;99.90
22738;DHT22;11536;50.860;4.286;2023-02-15T07:36:17;3.70;99.90
22738;DHT22;11536;50.860;4.286;2023-02-15T07:38:43;3.70;99.90
22738;DHT22;11536;50.860;4.286;2023-02-15T07:41:11;3.80;99.90
22738;DHT22;11536;50.860;4.286;2023-02-15T07:43:39;3.80;99.90
22738;DHT22;11536;50.860;4.286;2023-02-15T07:46:07;3.90;99.90
22738;DHT22;11536;50.860;4.286;2023-02-15T07:48:34;3.90;99.90
22738;DHT22;11536;50.860;4.286;2023-02-15T07:51:01;4.00;99.90
22738;DHT22;11536;50.860;4.286;2023-02-15T07:53:27;4.00;99.90
22738;DHT22;11536;50.860;4.286;2023-02-15T07:55:53;4.00;99.90
22738;DHT22;11536;50.860;4.286;2023-02-15T07:58:19;4.10;99.90
22738;DHT22;11536;50.860;4.286;2023-02-15T08:00:44;4.10;99.90
22738;DHT22;11536;50.860;4.286;2023-02-15T08:03:26;4.20;99.90
22738;DHT22;11536;50.860;4.286;2023-02-15T08:05:59;4.20;99.90
22738;DHT22;11536;50.860;4.286;2023-02-15T08:08:25;4.30;99.90
22738;DHT22;11536;50.860;4.286;2023-02-15T08:11:06;4.30;99.90
22738;DHT22;11536;50.860;4.286;2023-02-15T08:13:55;4.40;99.90
22738;DHT22;11536;50.860;4.286;2023-02-15T08:16:42;4.40;99.90
22738;DHT22;11536;50.860;4.286;2023-02-15T08:19:09;4.50;99.90
22738;DHT22;11536;50.860;4.286;2023-02-15T08:21:37;4.50;99.90
22738;DHT22;11536;50.860;4.286;2023-02-15T08:24:04;4.60;99.90
22738;DHT22;11536;50.860;4.286;2023-02-15T08:26:30;4.60;99.90
22738;DHT22;11536;50.860;4.286;2023-02-15T08:28:57;4.70;99.90
22738;DHT22;11536;50.860;4.286;2023-02-15T08:31:24;4.70;99.90
22738;DHT22;11536;50.860;4.286;2023-02-15T08:33:51;4.80;99.90
22738;DHT22;11536;50.860;4.286;2023-02-15T08:36:20;4.80;99.90
22738;DHT22;11536;50.860;4.286;2023-02-15T08:38:46;4.90;99.90
22738;DHT22;11536;50.860;4.286;2023-02-15T08:43:46;5.00;99.90
22738;DHT22;11536;50.860;4.286;2023-02-15T08:46:14;5.10;99.90
22738;DHT22;11536;50.860;4.286;2023-02-15T08:48:43;5.20;99.90
22738;DHT22;11536;50.860;4.286;2023-02-15T08:51:22;5.40;99.90
22738;DHT22;11536;50.860;4.286;2023-02-15T08:53:53;5.40;99.90
22738;DHT22;11536;50.860;4.286;2023-02-15T08:56:21;5.50;99.90
22738;DHT22;11536;50.860;4.286;2023-02-15T08:58:47;5.60;99.90
22738;DHT22;11536;50.860;4.286;2023-02-15T09:01:18;5.70;99.90
22738;DHT22;11536;50.860;4.286;2023-02-15T09:03:47;5.70;99.90
22738;DHT22;11536;50.860;4.286;2023-02-15T09:06:14;5.80;99.90
22738;DHT22;11536;50.860;4.286;2023-02-15T09:08:40;5.80;99.90
22738;DHT22;11536;50.860;4.286;2023-02-15T09:11:10;5.90;99.90
22738;DHT22;11536;50.860;4.286;2023-02-15T09:13:37;6.00;99.90
22738;DHT22;11536;50.860;4.286;2023-02-15T09:16:07;6.00;99.90
22738;DHT22;11536;50.860;4.286;2023-02-15T09:18:36;6.10;99.90
22738;DHT22;11536;50.860;4.286;2023-02-15T09:21:17;6.30;99.90
22738;DHT22;11536;50.860;4.286;2023-02-15T09:23:44;6.40;99.90
22738;DHT22;11536;50.860;4.286;2023-02-15T09:26:13;6.40;99.90
22738;DHT22;11536;50.860;4.286;2023-02-15T09:28:39;6.50;99.90
22738;DHT22;11536;50.860;4.286;2023-02-15T09:31:07;6.70;99.90
22738;DHT22;11536;50.860;4.286;2023-02-15T09:33:38;6.70;99.90
22738;DHT22;11536;50.860;4.286;2023-02-15T09:36:05;6.80;99.90
22738;DHT22;11536;50.860;4.286;2023-02-15T09:38:31;6.80;99.90
22738;DHT22;11536;50.860;4.286;2023-02-15T09:41:11;6.90;99.90
22738;DHT22;11536;50.860;4.286;2023-02-15T09:50:15;7.10;99.90
22738;DHT22;11536;50.860;4.286;2023-02-15T09:55:34;7.30;99.90
22738;DHT22;11536;50.860;4.286;2023-02-15T09:58:13;7.40;99.90
22738;DHT22;11536;50.860;4.286;2023-02-15T10:08:50;7.70;99.90
22738;DHT22;11536;50.860;4.286;2023-02-15T10:25:40;8.20;99.90
22738;DHT22;11536;50.860;4.286;2023-02-15T10:28:29;8.20;99.90
22738;DHT22;11536;50.860;4.286;2023-02-15T10:31:12;8.30;99.90
22738;DHT22;11536;50.860;4.286;2023-02-15T10:33:43;8.40;99.90
22738;DHT22;11536;50.860;4.286;2023-02-15T10:36:16;8.40;99.90
22738;DHT22;11536;50.860;4.286;2023-02-15T10:44:54;8.80;99.90
22738;DHT22;11536;50.860;4.286;2023-02-15T10:53:06;9.00;99.90
22738;DHT22;11536;50.860;4.286;2023-02-15T10:55:50;9.10;99.90
22738;DHT22;11536;50.860;4.286;2023-02-15T11:01:22;9.20;99.90
22738;DHT22;11536;50.860;4.286;2023-02-15T11:04:07;9.30;99.90
22738;DHT22;11536;50.860;4.286;2023-02-15T11:06:36;9.40;99.90
22738;DHT22;11536;50.860;4.286;2023-02-15T11:09:15;9.40;99.90
22738;DHT22;11536;50.860;4.286;2023-02-15T11:11:45;9.50;99.90
22738;DHT22;11536;50.860;4.286;2023-02-15T11:14:36;9.60;99.90
22738;DHT22;11536;50.860;4.286;2023-02-15T11:17:09;9.70;99.90
22738;DHT22;11536;50.860;4.286;2023-02-15T11:19:39;9.70;99.90
22738;DHT22;11536;50.860;4.286;2023-02-15T11:22:10;9.80;99.90
22738;DHT22;11536;50.860;4.286;2023-02-15T11:24:42;9.90;99.90
22738;DHT22;11536;50.860;4.286;2023-02-15T11:27:23;9.90;99.90
22738;DHT22;11536;50.860;4.286;2023-02-15T11:30:12;10.00;99.90
22738;DHT22;11536;50.860;4.286;2023-02-15T11:32:47;10.10;99.90
22738;DHT22;11536;50.860;4.286;2023-02-15T11:35:24;10.20;99.90
22738;DHT22;11536;50.860;4.286;2023-02-15T11:40:36;10.20;99.90
22738;DHT22;11536;50.860;4.286;2023-02-15T11:43:13;10.30;99.90
22738;DHT22;11536;50.860;4.286;2023-02-15T11:45:42;10.30;99.90
22738;DHT22;11536;50.860;4.286;2023-02-15T11:48:11;10.40;99.90
22738;DHT22;11536;50.860;4.286;2023-02-15T11:50:37;10.40;99.90
22738;DHT22;11536;50.860;4.286;2023-02-15T11:53:15;10.50;99.90
22738;DHT22;11536;50.860;4.286;2023-02-15T11:55:46;10.60;99.90
22738;DHT22;11536;50.860;4.286;2023-02-15T11:58:33;10.60;99.90
22738;DHT22;11536;50.860;4.286;2023-02-15T12:01:16;10.70;99.90
22738;DHT22;11536;50.860;4.286;2023-02-15T12:03:53;10.70;99.90
22738;DHT22;11536;50.860;4.286;2023-02-15T12:06:31;10.70;99.90
22738;DHT22;11536;50.860;4.286;2023-02-15T12:09:03;10.80;99.90
22738;DHT22;11536;50.860;4.286;2023-02-15T12:11:35;10.90;99.90
22738;DHT22;11536;50.860;4.286;2023-02-15T12:14:09;11.00;99.90
22738;DHT22;11536;50.860;4.286;2023-02-15T12:16:44;10.90;99.90
22738;DHT22;11536;50.860;4.286;2023-02-15T12:19:32;11.00;99.90
22738;DHT22;11536;50.860;4.286;2023-02-15T12:22:02;11.00;99.90
22738;DHT22;11536;50.860;4.286;2023-02-15T12:24:38;11.00;99.90
22738;DHT22;11536;50.860;4.286;2023-02-15T12:29:57;11.10;99.90
22738;DHT22;11536;50.860;4.286;2023-02-15T12:32:46;11.20;99.90
22738;DHT22;11536;50.860;4.286;2023-02-15T12:37:55;11.30;99.90
22738;DHT22;11536;50.860;4.286;2023-02-15T12:40:24;11.40;99.90
22738;DHT22;11536;50.860;4.286;2023-02-15T12:42:51;11.50;99.90
22738;DHT22;11536;50.860;4.286;2023-02-15T12:50:33;12.00;99.90
22738;DHT22;11536;50.860;4.286;2023-02-15T12:53:19;12.10;99.90
22738;DHT22;11536;50.860;4.286;2023-02-15T12:55:56;12.30;99.90
22738;DHT22;11536;50.860;4.286;2023-02-15T12:58:29;12.40;99.90
22738;DHT22;11536;50.860;4.286;2023-02-15T13:01:25;12.50;99.90
22738;DHT22;11536;50.860;4.286;2023-02-15T13:04:03;12.60;99.90
22738;DHT22;11536;50.860;4.286;2023-02-15T13:06:34;12.60;99.90
22738;DHT22;11536;50.860;4.286;2023-02-15T13:09:20;12.80;99.90
22738;DHT22;11536;50.860;4.286;2023-02-15T13:11:49;13.00;99.90
22738;DHT22;11536;50.860;4.286;2023-02-15T13:14:30;13.10;99.90
22738;DHT22;11536;50.860;4.286;2023-02-15T13:17:00;13.10;99.90
22738;DHT22;11536;50.860;4.286;2023-02-15T13:19:43;13.10;99.90
22738;DHT22;11536;50.860;4.286;2023-02-15T13:22:25;13.20;99.90
22738;DHT22;11536;50.860;4.286;2023-02-15T13:24:56;13.30;99.90
22738;DHT22;11536;50.860;4.286;2023-02-15T13:27:26;13.30;99.90
22738;DHT22;11536;50.860;4.286;2023-02-15T13:29:56;13.40;99.90
22738;DHT22;11536;50.860;4.286;2023-02-15T13:32:41;13.40;99.90
22738;DHT22;11536;50.860;4.286;2023-02-15T13:35:14;13.50;99.90
22738;DHT22;11536;50.860;4.286;2023-02-15T13:38:24;13.60;99.90
22738;DHT22;11536;50.860;4.286;2023-02-15T13:40:51;13.70;99.90
22738;DHT22;11536;50.860;4.286;2023-02-15T13:43:27;13.60;99.90
22738;DHT22;11536;50.860;4.286;2023-02-15T13:46:19;13.70;99.90
22738;DHT22;11536;50.860;4.286;2023-02-15T13:52:14;13.70;99.90
22738;DHT22;11536;50.860;4.286;2023-02-15T14:06:38;14.00;99.90
22738;DHT22;11536;50.860;4.286;2023-02-15T14:30:52;14.00;99.90
22738;DHT22;11536;50.860;4.286;2023-02-15T14:33:38;14.00;99.90
22738;DHT22;11536;50.860;4.286;2023-02-15T14:36:18;14.00;99.90
22738;DHT22;11536;50.860;4.286;2023-02-15T14:39:08;14.00;99.90
22738;DHT22;11536;50.860;4.286;2023-02-15T14:42:20;13.90;99.90
22738;DHT22;11536;50.860;4.286;2023-02-15T14:45:00;13.80;99.90
22738;DHT22;11536;50.860;4.286;2023-02-15T14:47:35;13.80;99.90
22738;DHT22;11536;50.860;4.286;2023-02-15T14:55:40;13.80;99.90
22738;DHT22;11536;50.860;4.286;2023-02-15T14:58:12;13.90;99.90
22738;DHT22;11536;50.860;4.286;2023-02-15T15:00:39;13.90;99.90
22738;DHT22;11536;50.860;4.286;2023-02-15T15:03:32;13.90;99.90
22738;DHT22;11536;50.860;4.286;2023-02-15T15:05:59;13.80;99.90
22738;DHT22;11536;50.860;4.286;2023-02-15T15:08:37;13.80;99.90
22738;DHT22;11536;50.860;4.286;2023-02-15T15:13:56;13.70;99.90
22738;DHT22;11536;50.860;4.286;2023-02-15T15:16:27;13.70;99.90
22738;DHT22;11536;50.860;4.286;2023-02-15T15:18:53;13.70;99.90
22738;DHT22;11536;50.860;4.286;2023-02-15T15:50:00;13.40;99.90
22738;DHT22;11536;50.860;4.286;2023-02-15T15:52:27;13.40;99.90
22738;DHT22;11536;50.860;4.286;2023-02-15T15:55:03;13.40;99.90
22738;DHT22;11536;50.860;4.286;2023-02-15T15:57:39;13.40;99.90
22738;DHT22;11536;50.860;4.286;2023-02-15T16:00:33;13.30;99.90
22738;DHT22;11536;50.860;4.286;2023-02-15T16:02:59;13.30;99.90
22738;DHT22;11536;50.860;4.286;2023-02-15T16:05:27;13.20;99.90
22738;DHT22;11536;50.860;4.286;2023-02-15T16:07:59;13.20;99.90
22738;DHT22;11536;50.860;4.286;2023-02-15T16:10:29;13.20;99.90
22738;DHT22;11536;50.860;4.286;2023-02-15T16:12:58;13.20;99.90
22738;DHT22;11536;50.860;4.286;2023-02-15T16:15:47;13.10;99.90
22738;DHT22;11536;50.860;4.286;2023-02-15T16:18:16;13.10;99.90
22738;DHT22;11536;50.860;4.286;2023-02-15T16:20:50;13.00;99.90
22738;DHT22;11536;50.860;4.286;2023-02-15T16:28:36;12.90;99.90
22738;DHT22;11536;50.860;4.286;2023-02-15T16:31:11;12.80;99.90
22738;DHT22;11536;50.860;4.286;2023-02-15T16:33:39;12.70;99.90
22738;DHT22;11536;50.860;4.286;2023-02-15T16:36:09;12.70;99.90
22738;DHT22;11536;50.860;4.286;2023-02-15T16:41:12;12.60;99.90
22738;DHT22;11536;50.860;4.286;2023-02-15T16:43:40;12.50;99.90
22738;DHT22;11536;50.860;4.286;2023-02-15T16:46:12;12.50;99.90
22738;DHT22;11536;50.860;4.286;2023-02-15T16:48:42;12.50;99.90
22738;DHT22;11536;50.860;4.286;2023-02-15T16:51:09;12.40;99.90
22738;DHT22;11536;50.860;4.286;2023-02-15T16:53:36;12.40;99.90
22738;DHT22;11536;50.860;4.286;2023-02-15T16:56:04;12.30;99.90
22738;DHT22;11536;50.860;4.286;2023-02-15T16:58:37;12.30;99.90
22738;DHT22;11536;50.860;4.286;2023-02-15T17:01:07;12.20;99.90
22738;DHT22;11536;50.860;4.286;2023-02-15T17:03:34;12.20;99.90
22738;DHT22;11536;50.860;4.286;2023-02-15T17:06:01;12.10;99.90
22738;DHT22;11536;50.860;4.286;2023-02-15T17:08:42;12.00;99.90
22738;DHT22;11536;50.860;4.286;2023-02-15T17:11:18;12.00;99.90
22738;DHT22;11536;50.860;4.286;2023-02-15T17:16:42;11.90;99.90
22738;DHT22;11536;50.860;4.286;2023-02-15T17:21:58;11.80;99.90
22738;DHT22;11536;50.860;4.286;2023-02-15T17:26:59;11.70;99.90
22738;DHT22;11536;50.860;4.286;2023-02-15T17:29:38;11.70;99.90
22738;DHT22;11536;50.860;4.286;2023-02-15T17:32:12;11.70;99.90
22738;DHT22;11536;50.860;4.286;2023-02-15T17:37:13;11.70;99.90
22738;DHT22;11536;50.860;4.286;2023-02-15T17:39:39;11.60;99.90
22738;DHT22;11536;50.860;4.286;2023-02-15T17:42:06;11.60;99.90
22738;DHT22;11536;50.860;4.286;2023-02-15T17:44:31;11.60;99.90
22738;DHT22;11536;50.860;4.286;2023-02-15T17:46:57;11.60;99.90
22738;DHT22;11536;50.860;4.286;2023-02-15T17:49:24;11.60;99.90
22738;DHT22;11536;50.860;4.286;2023-02-15T17:51:52;11.50;99.90
22738;DHT22;11536;50.860;4.286;2023-02-15T17:54:17;11.40;99.90
22738;DHT22;11536;50.860;4.286;2023-02-15T17:57:01;11.50;99.90
22738;DHT22;11536;50.860;4.286;2023-02-15T17:59:30;11.40;99.90
22738;DHT22;11536;50.860;4.286;2023-02-15T18:01:56;11.30;99.90
22738;DHT22;11536;50.860;4.286;2023-02-15T18:04:40;11.30;99.90
22738;DHT22;11536;50.860;4.286;2023-02-15T18:07:25;11.20;99.90
22738;DHT22;11536;50.860;4.286;2023-02-15T18:10:16;11.20;99.90
22738;DHT22;11536;50.860;4.286;2023-02-15T18:13:01;11.20;99.90
22738;DHT22;11536;50.860;4.286;2023-02-15T18:15:26;11.10;99.90
22738;DHT22;11536;50.860;4.286;2023-02-15T18:17:53;11.20;99.90
22738;DHT22;11536;50.860;4.286;2023-02-15T18:20:23;11.20;99.90
22738;DHT22;11536;50.860;4.286;2023-02-15T18:22:50;11.10;99.90
22738;DHT22;11536;50.860;4.286;2023-02-15T18:25:18;11.10;99.90
22738;DHT22;11536;50.860;4.286;2023-02-15T18:27:45;11.10;99.90
22738;DHT22;11536;50.860;4.286;2023-02-15T18:30:19;11.10;99.90
22738;DHT22;11536;50.860;4.286;2023-02-15T18:32:46;11.00;99.90
22738;DHT22;11536;50.860;4.286;2023-02-15T18:35:18;11.00;99.90
22738;DHT22;11536;50.860;4.286;2023-02-15T18:37:45;11.00;99.90
22738;DHT22;11536;50.860;4.286;2023-02-15T18:40:16;10.90;99.90
22738;DHT22;11536;50.860;4.286;2023-02-15T18:42:42;10.90;99.90
22738;DHT22;11536;50.860;4.286;2023-02-15T18:45:27;11.00;99.90
22738;DHT22;11536;50.860;4.286;2023-02-15T18:47:57;10.90;99.90
22738;DHT22;11536;50.860;4.286;2023-02-15T18:50:23;10.90;99.90
22738;DHT22;11536;50.860;4.286;2023-02-15T18:52:51;10.90;99.90
22738;DHT22;11536;50.860;4.286;2023-02-15T18:55:25;10.80;99.90
22738;DHT22;11536;50.860;4.286;2023-02-15T18:57:54;10.80;99.90
22738;DHT22;11536;50.860;4.286;2023-02-15T19:00:26;10.80;99.90
22738;DHT22;11536;50.860;4.286;2023-02-15T19:02:55;10.80;99.90